Time;durP1;ratioP1;P1;durP2;ratioP2;P2;SDS_P1;SDS_P2;PMS_P1;PMS_P2;Temp;Humidity;BMP_temperature;BMP_pressure;BME280_temperature;BME280_humidity;BME280_pressure;Samples;Min_cycle;Max_cycle;Signal;HPM_P1;HPM_P2
2022/08/16 00:01:25;;;;;;;49.97;34.45;;;;;;;19.55;97.12;100491.06;5043086;28;20056;-37
2022/08/16 00:03:52;;;;;;;52.38;37.55;;;;;;;19.55;97.82;100493.81;5049138;28;20104;-37
2022/08/16 00:06:18;;;;;;;55.35;38.22;;;;;;;19.52;97.88;100495.94;5048586;28;20072;-37
2022/08/16 00:08:43;;;;;;;62.15;39.53;;;;;;;19.53;97.90;100497.59;5038325;28;20138;-37
2022/08/16 00:11:10;;;;;;;54.13;38.47;;;;;;;19.52;97.63;100490.50;5034018;28;20025;-37
2022/08/16 00:13:35;;;;;;;52.60;36.25;;;;;;;19.53;97.75;100494.03;5038559;28;20025;-37
2022/08/16 00:16:01;;;;;;;55.70;39.28;;;;;;;19.51;97.23;100499.75;5035920;28;20108;-37
2022/08/16 00:18:27;;;;;;;57.22;40.53;;;;;;;19.47;97.72;100492.31;5043817;28;20372;-37
2022/08/16 00:20:52;;;;;;;57.15;40.50;;;;;;;19.46;97.51;100496.97;5043868;28;20021;-36
2022/08/16 00:23:17;;;;;;;54.97;38.58;;;;;;;19.46;98.20;100496.97;5051370;28;20491;-37
2022/08/16 00:25:43;;;;;;;59.78;40.28;;;;;;;19.44;98.07;100507.28;5052534;28;20417;-37
2022/08/16 00:28:09;;;;;;;53.17;38.38;;;;;;;19.42;98.27;100494.97;5036426;28;20034;-36
2022/08/16 00:30:34;;;;;;;57.80;39.70;;;;;;;19.40;98.39;100497.94;5049886;28;20029;-36
2022/08/16 00:33:00;;;;;;;61.88;40.28;;;;;;;19.41;98.66;100502.34;5043664;28;20492;-37
2022/08/16 00:35:31;;;;;;;58.25;39.65;;;;;;;19.38;98.73;100511.03;5045964;28;20030;-37
2022/08/16 00:37:57;;;;;;;54.97;40.45;;;;;;;19.34;98.81;100500.84;5046055;28;20411;-37
2022/08/16 00:40:26;;;;;;;62.20;39.50;;;;;;;19.33;98.82;100496.47;5036198;28;20100;-36
2022/08/16 00:42:52;;;;;;;62.60;40.78;;;;;;;19.36;99.69;100504.97;5046494;28;20098;-38
2022/08/16 00:45:34;;;;;;;56.00;39.00;;;;;;;19.35;99.44;100508.75;5048636;28;20468;-37
2022/08/16 00:48:01;;;;;;;55.08;37.42;;;;;;;19.35;99.21;100505.22;5052138;28;20123;-37
2022/08/16 00:50:29;;;;;;;57.43;39.70;;;;;;;19.35;99.08;100506.03;5054925;28;20033;-37
2022/08/16 00:52:54;;;;;;;51.97;36.88;;;;;;;19.36;98.82;100507.72;5072135;28;20086;-37
2022/08/16 00:55:21;;;;;;;49.05;35.65;;;;;;;19.36;98.77;100506.88;5051729;28;20135;-37
2022/08/16 00:57:48;;;;;;;52.25;36.95;;;;;;;19.32;98.26;100503.81;5041842;28;20041;-39
2022/08/16 01:00:14;;;;;;;52.90;36.83;;;;;;;19.30;98.01;100501.34;5031208;28;20779;-38
2022/08/16 01:02:39;;;;;;;51.70;36.45;;;;;;;19.28;97.77;100503.50;5032037;28;20507;-37
2022/08/16 01:05:05;;;;;;;51.20;35.78;;;;;;;19.26;98.22;100496.63;5048974;28;20037;-38
2022/08/16 01:07:30;;;;;;;50.17;36.17;;;;;;;19.26;97.99;100489.25;5051982;28;20487;-36
2022/08/16 01:09:56;;;;;;;51.97;37.58;;;;;;;19.23;98.33;100491.66;5050104;28;20037;-38
2022/08/16 01:12:21;;;;;;;60.20;36.22;;;;;;;19.21;98.59;100489.19;5034796;28;20045;-37
2022/08/16 01:14:50;;;;;;;54.63;36.38;;;;;;;19.18;98.53;100489.69;5034043;28;20130;-36
2022/08/16 01:17:18;;;;;;;49.53;35.90;;;;;;;19.16;98.99;100488.28;5030413;28;20028;-36
2022/08/16 01:19:47;;;;;;;48.53;35.58;;;;;;;19.12;98.52;100485.22;5034095;28;20025;-37
2022/08/16 01:22:24;;;;;;;52.15;36.03;;;;;;;19.11;98.56;100485.44;5048985;28;20044;-37
2022/08/16 01:24:57;;;;;;;53.88;34.95;;;;;;;19.07;98.60;100483.22;5034328;28;20033;-37
2022/08/16 01:27:38;;;;;;;51.25;34.42;;;;;;;19.07;98.57;100477.78;5037092;28;20571;-37
2022/08/16 01:30:24;;;;;;;46.40;33.38;;;;;;;19.10;98.24;100481.91;5036640;28;20017;-37
2022/08/16 01:32:51;;;;;;;50.22;36.45;;;;;;;19.10;98.38;100472.91;5047534;28;20025;-37
2022/08/16 01:35:20;;;;;;;53.08;35.58;;;;;;;19.06;97.45;100478.84;5032857;28;20132;-37
2022/08/16 01:37:49;;;;;;;64.32;37.30;;;;;;;19.06;97.70;100469.81;5036207;28;20033;-37
2022/08/16 01:40:17;;;;;;;50.95;35.08;;;;;;;19.04;97.28;100475.53;5030482;28;20030;-38
2022/08/16 01:42:45;;;;;;;55.42;34.88;;;;;;;19.04;97.84;100478.28;5038110;28;20047;-36
2022/08/16 01:45:10;;;;;;;;;;;;;;;19.04;97.62;100483.72;5047218;28;20055;-36
2022/08/16 01:47:36;;;;;;;56.25;33.45;;;;;;;19.04;97.27;100483.72;5037734;28;20387;-36
2022/08/16 01:50:03;;;;;;;51.00;33.50;;;;;;;19.10;96.50;100483.81;5045276;28;20269;-35
2022/08/16 01:52:29;;;;;;;43.42;32.17;;;;;;;19.16;95.15;100485.53;5050285;28;20021;-37
2022/08/16 01:54:54;;;;;;;50.13;31.92;;;;;;;19.22;94.45;100498.19;5034457;28;20025;-37
2022/08/16 01:57:20;;;;;;;50.75;32.33;;;;;;;19.29;93.57;100502.41;5036929;28;20033;-36
2022/08/16 01:59:45;;;;;;;47.45;32.05;;;;;;;19.33;93.20;100493.75;5048781;28;20100;-37
2022/08/16 02:02:10;;;;;;;51.90;32.38;;;;;;;19.35;92.83;100489.66;5049769;28;20504;-37
2022/08/16 02:04:36;;;;;;;45.40;31.50;;;;;;;19.35;92.40;100495.13;5047044;28;20172;-36
2022/08/16 02:07:07;;;;;;;49.55;30.13;;;;;;;19.35;92.16;100486.09;5041604;28;20046;-36
2022/08/16 02:09:32;;;;;;;46.58;31.73;;;;;;;19.37;91.73;100486.69;5031869;28;20382;-37
2022/08/16 02:11:58;;;;;;;40.67;30.10;;;;;;;19.37;91.37;100484.78;5032056;28;20033;-36
2022/08/16 02:14:27;;;;;;;47.33;30.00;;;;;;;19.38;91.70;100483.72;5030893;28;20107;-37
2022/08/16 02:16:55;;;;;;;41.88;30.20;;;;;;;19.37;91.78;100482.06;5035948;28;20029;-37
2022/08/16 02:19:20;;;;;;;49.97;29.80;;;;;;;19.37;91.58;100486.69;5039759;28;20032;-36
2022/08/16 02:21:49;;;;;;;43.95;29.77;;;;;;;19.34;91.81;100481.75;5029537;28;20017;-37
2022/08/16 02:24:15;;;;;;;43.85;29.92;;;;;;;19.30;91.32;100476.78;5035906;28;20029;-36
2022/08/16 02:26:40;;;;;;;40.78;26.85;;;;;;;19.29;91.36;100485.22;5039666;28;20029;-36
2022/08/16 02:29:06;;;;;;;41.83;28.02;;;;;;;19.27;91.50;100484.63;5030248;28;20354;-36
2022/08/16 02:31:31;;;;;;;50.45;30.50;;;;;;;19.20;91.69;100487.53;5038096;28;20575;-37
2022/08/16 02:33:58;;;;;;;43.63;27.33;;;;;;;19.17;91.92;100481.72;5076989;22;20041;-81
2022/08/16 02:36:23;;;;;;;44.55;31.30;;;;;;;19.16;92.35;100485.53;5011234;28;20029;-81
2022/08/16 02:38:49;;;;;;;43.47;29.88;;;;;;;19.04;92.65;100475.53;5044572;28;20037;-82
2022/08/16 02:41:14;;;;;;;42.45;31.15;;;;;;;18.99;92.74;100485.53;5048821;28;20046;-82
2022/08/16 02:43:40;;;;;;;48.28;31.92;;;;;;;18.94;92.73;100483.53;5051930;28;20077;-82
2022/08/16 02:46:07;;;;;;;45.25;30.70;;;;;;;18.91;93.04;100478.59;5021889;28;20024;-82
2022/08/16 02:48:33;;;;;;;47.50;31.10;;;;;;;18.94;93.03;100485.44;5056602;28;20255;-82
2022/08/16 02:51:00;;;;;;;50.72;30.55;;;;;;;18.87;92.92;100485.59;5039697;28;20036;-81
2022/08/16 02:53:26;;;;;;;44.80;30.85;;;;;;;18.88;92.49;100489.13;5056016;28;20021;-82
2022/08/16 02:55:51;;;;;;;48.80;31.13;;;;;;;18.85;92.32;100485.00;5038547;28;20032;-81
2022/08/16 02:58:19;;;;;;;43.28;29.75;;;;;;;18.87;92.19;100491.03;5038394;28;20094;-82
2022/08/16 03:00:45;;;;;;;40.58;28.90;;;;;;;18.92;92.19;100482.97;5055465;28;20049;-81
2022/08/16 03:03:10;;;;;;;44.75;28.73;;;;;;;18.87;91.54;100480.13;5055254;28;20051;-82
2022/08/16 03:05:36;;;;;;;40.13;28.48;;;;;;;18.85;90.62;100477.69;5054804;28;20046;-80
2022/08/16 03:08:02;;;;;;;40.97;27.42;;;;;;;18.93;90.40;100490.09;5054796;28;20127;-82
2022/08/16 03:10:27;;;;;;;41.08;27.38;;;;;;;18.95;90.12;100482.47;5055415;28;20025;-82
2022/08/16 03:12:53;;;;;;;39.45;26.98;;;;;;;18.88;89.35;100473.63;5037828;28;20089;-82
2022/08/16 03:15:19;;;;;;;41.80;26.25;;;;;;;18.91;89.14;100478.59;5038720;28;20024;-81
2022/08/16 03:17:44;;;;;;;39.08;27.30;;;;;;;18.93;89.02;100483.78;5053238;28;20017;-82
2022/08/16 03:20:13;;;;;;;44.35;27.55;;;;;;;18.92;88.59;100488.41;5027274;28;20052;-81
2022/08/16 03:22:38;;;;;;;42.42;28.25;;;;;;;18.93;88.10;100490.09;5010679;28;20102;-81
2022/08/16 03:25:10;;;;;;;41.40;26.58;;;;;;;18.92;88.28;100488.41;5050533;28;20021;-80
2022/08/16 03:27:37;;;;;;;33.75;24.73;;;;;;;18.93;87.91;100481.91;5056240;28;20025;-81
2022/08/16 03:30:09;;;;;;;42.10;27.63;;;;;;;18.95;87.92;100487.09;5041879;28;20109;-81
2022/08/16 03:32:35;;;;;;;39.25;26.33;;;;;;;18.91;87.80;100489.50;5058446;28;20120;-81
2022/08/16 03:35:00;;;;;;;38.85;26.48;;;;;;;18.88;87.51;100484.53;5058418;28;20065;-82
2022/08/16 03:37:26;;;;;;;38.72;27.48;;;;;;;18.93;88.05;100486.50;5059085;28;20029;-81
2022/08/16 03:39:52;;;;;;;41.75;26.45;;;;;;;18.88;87.96;100475.50;5045193;28;20077;-81
2022/08/16 03:42:17;;;;;;;46.47;28.77;;;;;;;18.84;88.48;100477.91;5040148;28;20167;-83
2022/08/16 03:44:43;;;;;;;42.45;27.80;;;;;;;18.82;88.63;100477.31;5058872;28;20048;-81
2022/08/16 03:47:09;;;;;;;40.47;27.80;;;;;;;18.78;88.46;100485.19;5040155;28;20093;-82
2022/08/16 03:49:35;;;;;;;40.70;28.58;;;;;;;18.81;88.77;100489.31;5058603;28;20152;-81
2022/08/16 03:52:01;;;;;;;41.97;28.98;;;;;;;18.80;88.96;100493.94;5058400;28;20010;-81
2022/08/16 03:54:27;;;;;;;41.38;29.13;;;;;;;18.77;89.29;100485.41;5041420;28;20119;-81
2022/08/16 03:56:53;;;;;;;41.90;28.25;;;;;;;18.74;89.40;100488.59;5040671;28;20017;-81
2022/08/16 03:59:19;;;;;;;44.40;30.85;;;;;;;18.74;90.00;100491.31;5040604;28;20056;-81
2022/08/16 04:01:44;;;;;;;53.70;30.83;;;;;;;18.67;90.07;100483.31;5058027;28;20083;-81
2022/08/16 04:04:10;;;;;;;50.72;30.60;;;;;;;18.72;90.20;100497.03;5056328;28;20100;-82
2022/08/16 04:06:36;;;;;;;51.65;31.23;;;;;;;18.65;90.38;100494.44;5058784;28;20033;-81
2022/08/16 04:09:01;;;;;;;51.95;33.10;;;;;;;18.62;90.31;100494.13;5040637;28;20080;-82
2022/08/16 04:11:27;;;;;;;48.95;32.65;;;;;;;18.61;90.55;100498.72;5057417;28;20026;-81
2022/08/16 04:13:52;;;;;;;47.58;33.83;;;;;;;18.60;90.94;100499.78;5057108;28;20080;-81
2022/08/16 04:16:18;;;;;;;51.92;35.05;;;;;;;18.62;91.23;100514.00;5024564;28;20081;-80
2022/08/16 04:18:44;;;;;;;57.15;35.50;;;;;;;18.57;91.18;100508.47;5057570;28;20037;-82
2022/08/16 04:21:10;;;;;;;53.83;35.67;;;;;;;18.56;91.44;100508.69;5037802;28;20018;-80
2022/08/16 04:23:37;;;;;;;55.03;37.13;;;;;;;18.55;91.75;100513.31;5057706;28;20024;-81
2022/08/16 04:26:06;;;;;;;56.58;38.40;;;;;;;18.60;91.86;100527.06;5024205;28;20025;-82
2022/08/16 04:28:32;;;;;;;58.35;37.72;;;;;;;18.52;91.85;100518.44;5057026;28;20033;-82
2022/08/16 04:30:57;;;;;;;60.42;37.92;;;;;;;18.53;92.32;100523.63;5041049;28;20020;-82
2022/08/16 04:33:24;;;;;;;61.72;39.20;;;;;;;18.48;92.51;100518.09;5024156;28;20033;-80
2022/08/16 04:35:50;;;;;;;62.65;39.63;;;;;;;18.49;92.45;100524.38;5038985;28;20045;-81
2022/08/16 04:38:15;;;;;;;59.92;40.25;;;;;;;18.50;92.50;100524.13;5037854;28;20091;-81
2022/08/16 04:40:40;;;;;;;62.13;40.90;;;;;;;18.51;92.71;100514.91;5023419;28;20052;-81
2022/08/16 04:43:06;;;;;;;65.55;40.67;;;;;;;18.51;92.65;100512.16;5056154;28;20021;-81
2022/08/16 04:45:31;;;;;;;65.72;41.03;;;;;;;18.50;92.57;100512.41;5023940;28;20024;-83
2022/08/16 04:47:58;;;;;;;60.58;38.10;;;;;;;18.55;92.83;100521.50;5056949;28;20021;-81
2022/08/16 04:50:26;;;;;;;64.53;41.03;;;;;;;18.56;92.88;100520.44;5057040;28;20120;-81
2022/08/16 04:52:52;;;;;;;62.40;40.75;;;;;;;18.54;92.85;100524.50;5057623;28;20037;-82
2022/08/16 04:55:23;;;;;;;63.47;40.35;;;;;;;18.54;93.10;100527.22;5023870;28;20029;-81
2022/08/16 04:57:51;;;;;;;57.17;39.28;;;;;;;18.56;92.92;100531.34;5057676;28;20028;-82
2022/08/16 05:00:23;;;;;;;61.50;41.05;;;;;;;18.62;92.97;100532.28;5055843;28;20039;-82
2022/08/16 05:02:50;;;;;;;64.70;40.05;;;;;;;18.67;92.82;100536.97;5045723;28;20048;-82
2022/08/16 05:05:16;;;;;;;69.20;40.08;;;;;;;18.65;92.90;100535.34;5021636;28;20021;-81
2022/08/16 05:07:42;;;;;;;62.88;40.50;;;;;;;18.68;92.94;100539.47;5056528;28;20036;-80
2022/08/16 05:10:08;;;;;;;71.13;40.22;;;;;;;18.72;93.07;100537.06;5057537;28;20046;-82
2022/08/16 05:12:34;;;;;;;66.88;41.22;;;;;;;18.75;92.78;100544.81;5057135;28;20018;-82
2022/08/16 05:15:00;;;;;;;70.82;40.53;;;;;;;18.74;92.70;100543.94;5057182;28;20032;-82
2022/08/16 05:17:25;;;;;;;64.68;40.60;;;;;;;18.81;92.74;100549.28;5056642;28;20018;-81
2022/08/16 05:19:53;;;;;;;61.58;38.45;;;;;;;18.84;92.22;100544.16;5054869;28;20021;-82
2022/08/16 05:22:19;;;;;;;67.65;40.55;;;;;;;18.89;92.28;100539.91;5055395;28;20101;-82
2022/08/16 05:24:45;;;;;;;67.30;41.97;;;;;;;18.99;92.42;100551.00;5052683;28;20084;-80
2022/08/16 05:27:10;;;;;;;64.05;39.13;;;;;;;19.03;92.19;100549.41;5057710;28;20017;-83
2022/08/16 05:29:35;;;;;;;66.07;40.10;;;;;;;19.12;91.66;100558.88;5039725;28;20041;-83
2022/08/16 05:32:02;;;;;;;64.07;39.75;;;;;;;19.17;91.22;100558.09;5057209;28;20020;-83
2022/08/16 05:34:27;;;;;;;66.20;38.42;;;;;;;19.28;91.19;100559.97;5055352;28;20110;-80
2022/08/16 05:36:56;;;;;;;60.72;37.85;;;;;;;19.39;90.39;100561.78;5038734;28;20013;-81
2022/08/16 05:39:26;;;;;;;63.22;38.92;;;;;;;19.46;90.54;100559.72;5067264;28;20060;-82
2022/08/16 05:41:53;;;;;;;66.05;39.45;;;;;;;19.50;90.02;100569.06;5041389;28;20044;-81
2022/08/16 05:44:20;;;;;;;65.83;39.73;;;;;;;19.66;89.91;100572.03;5055222;28;20069;-82
2022/08/16 05:46:45;;;;;;;60.88;40.65;;;;;;;19.59;89.01;100565.91;5039726;28;20089;-81
2022/08/16 05:49:12;;;;;;;65.75;40.97;;;;;;;19.63;89.02;100576.09;5052110;28;20042;-81
2022/08/16 05:51:39;;;;;;;64.45;40.15;;;;;;;19.78;89.45;100559.16;5019502;28;20041;-82
2022/08/16 05:54:09;;;;;;;63.35;40.78;;;;;;;20.10;89.25;100562.09;5055509;28;20033;-81
2022/08/16 05:56:34;;;;;;;56.58;36.15;;;;;;;20.51;86.90;100564.50;5036586;28;20105;-81
2022/08/16 05:59:00;;;;;;;67.93;36.88;;;;;;;20.96;85.49;100558.78;5029724;28;20089;-83
2022/08/16 06:01:25;;;;;;;56.22;35.75;;;;;;;21.43;82.99;100558.16;5036253;28;20034;-81
2022/08/16 06:03:54;;;;;;;56.92;35.63;;;;;;;22.28;81.11;100563.69;5036368;28;20060;-82
2022/08/16 06:06:19;;;;;;;67.47;35.97;;;;;;;22.79;76.01;100558.38;5036853;28;20025;-82
2022/08/16 06:08:45;;;;;;;56.17;35.30;;;;;;;22.81;74.63;100577.31;5035968;28;20025;-82
2022/08/16 06:11:10;;;;;;;54.10;35.28;;;;;;;22.90;74.67;100580.34;5038839;28;20100;-80
2022/08/16 06:13:36;;;;;;;57.85;36.42;;;;;;;22.63;75.66;100583.28;5037417;28;20021;-83
2022/08/16 06:16:04;;;;;;;62.45;37.63;;;;;;;22.58;75.57;100576.69;5037132;28;20041;-80
2022/08/16 06:18:30;;;;;;;65.40;39.53;;;;;;;22.33;76.91;100571.94;5036939;28;20998;-81
2022/08/16 06:20:56;;;;;;;66.72;40.78;;;;;;;22.27;77.76;100583.13;5018331;28;20102;-81
2022/08/16 06:23:22;;;;;;;69.55;40.72;;;;;;;22.55;77.50;100588.19;5037311;28;20037;-81
2022/08/16 06:25:48;;;;;;;68.93;41.92;;;;;;;22.73;75.91;100592.38;5020755;28;20044;-84
2022/08/16 06:28:13;;;;;;;82.03;42.38;;;;;;;23.09;75.07;100586.19;5019942;28;20033;-81
2022/08/16 06:30:39;;;;;;;69.97;44.45;;;;;;;22.72;75.23;100579.78;5018257;28;20029;-80
2022/08/16 06:33:04;;;;;;;65.57;42.85;;;;;;;22.74;76.96;100587.72;5016008;28;20105;-83
2022/08/16 06:35:30;;;;;;;80.60;45.03;;;;;;;22.91;75.28;100560.06;5036052;28;20069;-81
2022/08/16 06:37:59;;;;;;;82.50;43.42;;;;;;;23.43;74.95;100564.53;5018752;28;20029;-81
2022/08/16 06:40:24;;;;;;;71.95;45.75;;;;;;;23.74;72.19;100568.13;5034204;28;20080;-80
2022/08/16 06:42:51;;;;;;;81.18;44.63;;;;;;;23.86;72.96;100576.91;5018815;28;20014;-82
2022/08/16 06:45:17;;;;;;;73.00;44.37;;;;;;;24.32;70.02;100585.03;5019206;28;20024;-81
2022/08/16 06:47:44;;;;;;;82.57;44.65;;;;;;;24.18;70.92;100584.00;5019728;28;20033;-81
2022/08/16 06:50:10;;;;;;;;;;;;;;;24.50;69.03;100588.31;5037455;28;20044;-81
2022/08/16 06:52:35;;;;;;;73.85;42.25;;;;;;;24.94;67.73;100590.31;5018072;28;19905;-82
2022/08/16 06:55:06;;;;;;;81.72;44.22;;;;;;;25.19;67.10;100590.16;5018097;28;20056;-82
2022/08/16 06:57:32;;;;;;;81.90;44.20;;;;;;;25.59;65.86;100609.44;5019412;28;20021;-82
2022/08/16 07:00:14;;;;;;;83.25;44.50;;;;;;;25.28;66.40;100600.59;5033435;28;20052;-82
2022/08/16 07:02:41;;;;;;;77.28;43.85;;;;;;;25.80;64.82;100616.44;5021989;28;20013;-80
2022/08/16 07:05:07;;;;;;;83.05;43.25;;;;;;;25.69;66.26;100605.78;5018861;28;20030;-81
2022/08/16 07:07:34;;;;;;;81.50;43.22;;;;;;;25.77;65.78;100605.16;5019857;28;20030;-81
2022/08/16 07:10:00;;;;;;;78.27;45.20;;;;;;;25.77;64.34;100613.41;5050693;28;20024;-80
2022/08/16 07:12:25;;;;;;;84.20;46.92;;;;;;;25.18;66.41;100604.25;5020505;28;20017;-81
2022/08/16 07:14:51;;;;;;;78.65;45.45;;;;;;;24.94;67.84;100607.66;5020075;28;20045;-79
2022/08/16 07:17:20;;;;;;;79.38;45.22;;;;;;;24.91;66.93;100610.16;5017446;28;20049;-80
2022/08/16 07:19:45;;;;;;;80.93;41.85;;;;;;;24.86;68.64;100611.00;5032558;28;20473;-81
2022/08/16 07:22:11;;;;;;;79.47;42.83;;;;;;;25.07;68.26;100617.22;5028466;28;20042;-81
2022/08/16 07:24:36;;;;;;;82.53;41.58;;;;;;;25.39;66.13;100613.19;5011468;28;20088;-80
2022/08/16 07:27:02;;;;;;;73.95;41.33;;;;;;;24.96;66.98;100621.97;5025915;28;20180;-81
2022/08/16 07:29:29;;;;;;;80.85;43.85;;;;;;;24.66;69.48;100622.91;5044645;28;20017;-84
2022/08/16 07:31:55;;;;;;;77.40;42.23;;;;;;;25.23;68.04;100620.72;5046120;28;20024;-82
2022/08/16 07:34:20;;;;;;;81.55;42.60;;;;;;;25.15;67.36;100630.41;5023836;28;20289;-79
2022/08/16 07:36:45;;;;;;;77.63;42.28;;;;;;;25.40;66.29;100623.91;5029717;28;20041;-80
2022/08/16 07:39:12;;;;;;;79.30;42.53;;;;;;;25.72;66.10;100627.25;5012314;28;20049;-80
2022/08/16 07:41:39;;;;;;;85.43;43.72;;;;;;;26.28;63.61;100635.84;5011122;28;20022;-82
2022/08/16 07:44:04;;;;;;;74.63;39.60;;;;;;;27.09;61.44;100643.44;5029227;28;20082;-79
2022/08/16 07:46:30;;;;;;;70.53;39.20;;;;;;;27.21;60.43;100646.63;5029176;28;20026;-81
2022/08/16 07:49:08;;;;;;;65.03;37.63;;;;;;;27.36;60.73;100642.81;5013344;28;20014;-81
2022/08/16 07:51:35;;;;;;;69.97;38.05;;;;;;;27.96;58.17;100644.91;5013152;28;20002;-80
2022/08/16 07:54:02;;;;;;;73.80;35.97;;;;;;;27.72;58.63;100640.28;5007040;28;20041;-82
2022/08/16 07:56:28;;;;;;;;;;;;;;;28.84;56.48;100642.94;5007043;28;20030;-81
2022/08/16 07:58:54;;;;;;;65.07;33.40;;;;;;;28.80;54.70;100649.41;5005539;28;19913;-81
2022/08/16 08:01:19;;;;;;;69.68;32.97;;;;;;;28.64;54.28;100646.13;5002642;28;20096;-79
2022/08/16 08:03:45;;;;;;;73.93;36.15;;;;;;;27.21;57.85;100643.84;4999349;28;20022;-81
2022/08/16 08:06:11;;;;;;;62.97;33.70;;;;;;;27.02;59.99;100643.81;5017559;28;20082;-80
2022/08/16 08:08:37;;;;;;;65.55;34.08;;;;;;;27.24;58.12;100640.50;5019137;28;20026;-81
2022/08/16 08:11:03;;;;;;;72.85;36.53;;;;;;;27.20;58.56;100647.75;5009558;28;20040;-82
2022/08/16 08:13:28;;;;;;;68.63;37.00;;;;;;;27.80;57.75;100638.78;5027360;28;20022;-81
2022/08/16 08:15:56;;;;;;;71.20;32.38;;;;;;;28.30;56.55;100644.56;5016469;28;20018;-81
2022/08/16 08:18:21;;;;;;;59.10;32.13;;;;;;;28.23;54.97;100638.63;5008003;28;20026;-82
2022/08/16 08:20:47;;;;;;;67.88;32.53;;;;;;;28.78;54.22;100643.34;5028346;28;20038;-82
2022/08/16 08:23:13;;;;;;;60.55;30.70;;;;;;;29.33;53.06;100651.59;5029633;28;20041;-80
2022/08/16 08:25:40;;;;;;;63.33;32.58;;;;;;;29.88;51.75;100664.44;5028682;28;20058;-81
2022/08/16 08:28:06;;;;;;;87.38;39.03;;;;;;;28.72;54.16;100656.50;5026356;28;20026;-80
2022/08/16 08:30:32;;;;;;;85.10;39.20;;;;;;;28.80;53.69;100653.00;5030367;28;20049;-81
2022/08/16 08:32:57;;;;;;;80.83;41.10;;;;;;;29.00;53.25;100660.06;5027943;28;20026;-80
2022/08/16 08:35:23;;;;;;;87.03;40.78;;;;;;;29.21;54.14;100656.88;5046518;28;20065;-81
2022/08/16 08:37:48;;;;;;;93.27;47.17;;;;;;;29.03;53.19;100659.44;5028800;28;20044;-79
2022/08/16 08:40:14;;;;;;;93.45;47.90;;;;;;;28.33;56.05;100676.34;5044328;28;20430;-82
2022/08/16 08:42:43;;;;;;;97.90;48.05;;;;;;;28.47;56.17;100681.94;5027896;28;20029;-83
2022/08/16 08:45:10;;;;;;;96.07;48.15;;;;;;;29.01;54.59;100683.03;5029957;28;20040;-81
2022/08/16 08:47:35;;;;;;;82.85;40.33;;;;;;;29.76;52.83;100681.66;5048394;28;20030;-82
2022/08/16 08:50:05;;;;;;;76.70;37.37;;;;;;;30.13;51.70;100687.94;5028399;28;20163;-82
2022/08/16 08:52:32;;;;;;;83.50;40.63;;;;;;;30.32;50.90;100683.00;5013572;28;20036;-82
2022/08/16 08:54:57;;;;;;;83.75;42.25;;;;;;;30.03;50.64;100690.97;5010836;28;20093;-81
2022/08/16 08:57:23;;;;;;;99.13;44.63;;;;;;;29.24;51.77;100693.09;5047158;28;20081;-81
2022/08/16 08:59:49;;;;;;;77.67;40.37;;;;;;;28.73;53.60;100701.66;5045409;28;20032;-81
2022/08/16 09:02:15;;;;;;;92.30;44.03;;;;;;;28.02;56.12;100691.56;5006664;28;20029;-85
2022/08/16 09:04:44;;;;;;;95.05;44.97;;;;;;;28.18;55.73;100697.63;5009948;28;20026;-82
2022/08/16 09:07:10;;;;;;;81.85;38.72;;;;;;;28.11;55.34;100701.91;5011394;28;20029;-85
2022/08/16 09:09:35;;;;;;;84.32;39.17;;;;;;;28.07;55.18;100693.41;5029078;28;20047;-83
2022/08/16 09:12:01;;;;;;;73.00;34.88;;;;;;;28.13;53.97;100707.97;5009484;28;20048;-79
2022/08/16 09:14:27;;;;;;;70.07;36.22;;;;;;;27.93;55.01;100707.19;5040423;28;20080;-80
2022/08/16 09:16:53;;;;;;;78.85;33.58;;;;;;;27.89;55.70;100705.34;5026769;28;20109;-83
2022/08/16 09:19:20;;;;;;;74.65;32.08;;;;;;;28.42;54.66;100702.19;5009166;28;20107;-82
2022/08/16 09:21:48;;;;;;;62.22;31.63;;;;;;;28.94;53.36;100708.41;5023675;28;20028;-83
2022/08/16 09:24:15;;;;;;;65.22;30.45;;;;;;;28.13;53.98;100700.50;5024538;28;20029;-83
2022/08/16 09:26:40;;;;;;;69.07;32.10;;;;;;;28.14;54.70;100707.66;5046487;28;20056;-83
2022/08/16 09:29:06;;;;;;;70.32;31.52;;;;;;;28.23;54.90;100705.84;5009314;28;20017;-83
2022/08/16 09:31:31;;;;;;;71.50;32.85;;;;;;;28.01;54.87;100712.03;5046412;28;20037;-80
2022/08/16 09:33:57;;;;;;;68.00;31.38;;;;;;;28.23;54.33;100708.63;5022869;28;20077;-81
2022/08/16 09:36:24;;;;;;;62.70;27.42;;;;;;;28.81;54.02;100704.50;5024457;28;20103;-81
2022/08/16 09:38:49;;;;;;;60.28;26.60;;;;;;;29.52;51.89;100710.47;5024326;28;20097;-83
2022/08/16 09:41:15;;;;;;;66.30;28.58;;;;;;;30.17;49.85;100716.69;5013845;28;20056;-82
2022/08/16 09:43:42;;;;;;;59.10;23.23;;;;;;;30.77;48.87;100713.44;5030435;28;20033;-83
2022/08/16 09:46:08;;;;;;;72.90;27.45;;;;;;;31.45;46.98;100715.94;5013355;28;20099;-83
2022/08/16 09:48:35;;;;;;;68.50;27.23;;;;;;;31.50;45.78;100718.56;5011928;28;20026;-83
2022/08/16 09:51:04;;;;;;;70.47;32.05;;;;;;;30.87;47.13;100722.66;5010933;28;20044;-83
2022/08/16 09:53:31;;;;;;;66.45;30.45;;;;;;;29.92;50.03;100710.66;5010614;28;20036;-81
2022/08/16 09:55:56;;;;;;;;;;;;;;;30.08;50.16;100715.84;5049864;28;20065;-82
2022/08/16 09:58:23;;;;;;;65.10;29.40;;;;;;;29.74;51.04;100708.91;5026093;28;19945;-84
2022/08/16 10:00:49;;;;;;;72.70;33.97;;;;;;;29.86;51.22;100714.72;5011447;28;20026;-84
2022/08/16 10:03:16;;;;;;;79.55;39.40;;;;;;;29.29;51.41;100720.69;5029929;28;20032;-84
2022/08/16 10:05:42;;;;;;;65.72;31.58;;;;;;;28.80;53.07;100721.41;5032832;28;20401;-83
2022/08/16 10:08:08;;;;;;;76.20;38.55;;;;;;;27.71;54.74;100721.59;5023833;28;20028;-80
2022/08/16 10:10:34;;;;;;;72.32;32.05;;;;;;;27.67;55.49;100726.09;5008929;28;20038;-80
2022/08/16 10:13:13;;;;;;;66.35;33.70;;;;;;;27.39;56.48;100729.84;5023542;28;20053;-82
2022/08/16 10:15:44;;;;;;;72.47;33.95;;;;;;;27.33;57.11;100732.66;5011095;28;20021;-83
2022/08/16 10:18:11;;;;;;;62.45;27.42;;;;;;;27.63;56.77;100730.59;5030019;28;20025;-83
2022/08/16 10:20:43;;;;;;;60.38;25.48;;;;;;;27.79;55.16;100734.75;5011908;28;20056;-83
2022/08/16 10:23:11;;;;;;;65.50;25.05;;;;;;;27.90;54.48;100729.09;5035666;28;20020;-82
2022/08/16 10:25:39;;;;;;;73.60;32.50;;;;;;;27.74;53.95;100725.72;5012115;28;20034;-83
2022/08/16 10:28:09;;;;;;;52.53;24.15;;;;;;;27.93;54.63;100739.56;5013503;28;20032;-83
2022/08/16 10:30:36;;;;;;;54.92;26.63;;;;;;;27.99;52.59;100743.91;5026785;28;20127;-83
2022/08/16 10:33:01;;;;;;;54.25;25.58;;;;;;;27.71;53.65;100746.50;5011428;28;20088;-83
2022/08/16 10:35:27;;;;;;;66.40;28.60;;;;;;;27.63;53.86;100746.34;5010374;28;20045;-82
2022/08/16 10:37:52;;;;;;;66.72;27.23;;;;;;;27.67;53.93;100741.84;5032408;28;20036;-83
2022/08/16 10:40:21;;;;;;;59.92;23.77;;;;;;;27.66;54.40;100741.03;5033778;28;20052;-83
2022/08/16 10:42:48;;;;;;;58.45;25.40;;;;;;;27.80;54.51;100749.41;5018624;28;20091;-82
2022/08/16 10:45:14;;;;;;;56.00;24.27;;;;;;;27.92;53.88;100749.00;5034339;28;20033;-80
2022/08/16 10:47:39;;;;;;;53.17;23.70;;;;;;;27.78;54.16;100752.47;5018380;28;20404;-83
2022/08/16 10:50:06;;;;;;;56.92;23.58;;;;;;;27.52;54.57;100757.56;5034993;28;20048;-80
2022/08/16 10:52:32;;;;;;;;;;;;;;;27.52;54.90;100754.78;5032451;28;20036;-83
2022/08/16 10:54:58;;;;;;;50.00;23.93;;;;;;;27.34;54.92;100752.84;5011274;28;19909;-83
2022/08/16 10:57:27;;;;;;;60.67;26.77;;;;;;;27.20;55.39;100755.50;5047203;28;20053;-82
2022/08/16 10:59:52;;;;;;;64.15;23.05;;;;;;;27.34;55.46;100750.88;5051061;28;20097;-83
2022/08/16 11:02:23;;;;;;;47.00;23.13;;;;;;;26.91;56.47;100767.41;5011638;28;20017;-83
2022/08/16 11:04:49;;;;;;;54.72;23.33;;;;;;;27.13;56.69;100766.88;5034077;28;20089;-84
2022/08/16 11:07:14;;;;;;;51.83;19.38;;;;;;;27.19;56.10;100773.19;5033421;28;20052;-83
2022/08/16 11:09:40;;;;;;;59.08;23.38;;;;;;;27.26;55.88;100773.66;5020964;28;20021;-84